Westboro, Ohio
Current Conditions -  °F | °C
As of 9:54 AM on Wednesday 22 Oct 2014 (Local Time) from KILN Reporting Station
Overcast Overcast  
Wind Chill: 39°   Ceiling: 3000
Heat Index: 45°   Visibility: 10mi
Dew Point: 40°   Wind: 14mph
Humidity: 82%   Direction: 350°N
Pressure: 30.26"   Gusts: NA
Location:  39.2883°N, 83.8861°W
Report Text: KILN 221354Z AUTO 35012KT 10SM FEW011 OVC030 07/04 A3026 RMK AO2 SLP262 T00720044
Loading
Personal Weather Stations






























Interactive Weather Map
Tropical Storm Tracking
New forecast layout! Learn more

10-Day Weather Forecast

Advertisements
Track Severe Weather on mobile